Van Ferit Melen Airport
LTCI : now visible

Airfield :











YOU CAN JOIN US ON...

 
LOGIN :

Register | Disclaimer

   EN    FR    IT 

 









Legend :    VFR   Marginal VFR   IFR   Intensive IFR   Very Intensive IFR
Visi :
Ceiling :
>= 8 km
>= 3000ft
5 to 8 km
1000 to 3000 ft
1500m to 5 km
500 to 1000 ft
800 to 1500m
200 to 500 ft
< 800m
< 200 ft
Symbols :   Thunderstorms  Fog  Heavy snow  Heavy precipitations  Wind > 20 kt






- Airport Elevation : 5480 ft
- IATA code : VAN


LTCI - Van Ferit Melen

CURRENT METAR :
  • 020650Z 32006KT 9999 SCT030 BKN070 07/03 Q1012 NOSIG

EXPIRED METARs :
  • 020550Z 06004KT 010V110 9999 SCT035 BKN070 08/03 Q1012 NOSIG
  • 020450Z 11003KT 9999 SCT030 BKN070 06/03 Q1011 NOSIG

TAF TAF LTCI
Valid from the 02 at 06:00 until the 02 at 15:00 UTC


020440Z 0206/0215 30008KT 9999 SCT030 BKN070



MET'MAP, your aeronautical weather chart ! - Copyright ORBIFLY December 2007 - Disclaimer

ORBIFLY MET'MAP TEAM :

Programming & Development : Alexandra Zaïnal
Concept & original design : Baudouin d'Aumeries
Assistance for programming : Marc-Olivier Méhu
Technical & hardware support : Manuel Goepfert

Contact : metmap@orbifly.com




SOURCES & CREDITS :

   NOAA       Earth
Advisory